MHTG/TGU METAR and TAF weather

Enter ICAO airport designator
Station Type Date Time Source
MHTG METAR 2019/08/17 11:00 UTC NOAA

MHTG 171100Z 00000KT 9999 SCT026 BKN080 19/18 Q1021 A3015 NOSIG


Station Type Date Time Source
MHTG Decoded METAR 2019/08/17 11:00 UTC NOAA

Station name not available
Aug 17, 2019 - 07:00 AM EDT / 2019.08.17 1100 UTC
Wind: Calm:0
Visibility: greater than 7 mile(s):0
Sky conditions: mostly cloudy
Temperature: 66 F (19 C)
Dew Point: 64 F (18 C)
Relative Humidity: 93%
Pressure (altimeter): 30.15 in. Hg (1020 hPa)
ob: MHTG 171100Z 00000KT 9999 SCT026 BKN080 19/18 Q1021 A3015 NOSIG
cycle: 11

Station Type Date Time Source
MHTG TAF 2019/08/17 06:18 UTC NOAA

TAF MHTG 170415Z 1706/1806 00000KT 6000 FEW007 SCT026 BKN080 TX28/1720Z TN17/1712Z
BECMG 1714/1716 12005KT 9999 SCT030TCU SCT100
TEMPO 1721/1801 6000 TSRA SCT028CB SCT090
BECMG 1801/1803 36003KT 8000 VCSH SCT026 FEW028CB BKN080

Example: see airport list